Time;durP1;ratioP1;P1;durP2;ratioP2;P2;SDS_P1;SDS_P2;PMS_P1;PMS_P2;Temp;Humidity;BMP_temperature;BMP_pressure;BME280_temperature;BME280_humidity;BME280_pressure;Samples;Min_cycle;Max_cycle;Signal;HPM_P1;HPM_P2
2023/07/23 00:00:35;;;;;;;10.15;5.53;;;14.20;99.90;;;;;;5121336;27;20043;-63
2023/07/23 00:03:01;;;;;;;11.73;5.82;;;14.20;99.90;;;;;;5145515;27;20043;-63
2023/07/23 00:05:27;;;;;;;8.48;5.70;;;14.20;99.90;;;;;;5127541;27;20047;-63
2023/07/23 00:07:58;;;;;;;10.68;6.10;;;14.20;99.90;;;;;;5129069;27;20355;-63
2023/07/23 00:10:24;;;;;;;8.88;5.78;;;14.20;99.90;;;;;;5125524;27;20041;-63
2023/07/23 00:12:51;;;;;;;8.70;5.57;;;14.20;99.90;;;;;;5125477;27;20144;-63
2023/07/23 00:15:18;;;;;;;7.43;5.10;;;14.20;99.90;;;;;;5126059;27;20469;-63
2023/07/23 00:17:44;;;;;;;9.73;5.90;;;14.20;99.90;;;;;;5126918;27;20133;-64
2023/07/23 00:20:10;;;;;;;8.35;5.90;;;14.20;99.90;;;;;;5122689;27;20565;-63
2023/07/23 00:22:37;;;;;;;11.15;6.18;;;14.20;99.90;;;;;;5118286;27;20049;-62
2023/07/23 00:25:03;;;;;;;10.48;6.28;;;14.20;99.90;;;;;;5125423;27;20119;-64
2023/07/23 00:27:29;;;;;;;9.95;5.95;;;14.20;99.90;;;;;;5123345;27;20121;-64
2023/07/23 00:29:56;;;;;;;10.38;6.40;;;14.20;99.90;;;;;;5125435;27;20117;-62
2023/07/23 00:32:22;;;;;;;10.70;6.53;;;14.20;99.90;;;;;;5125279;27;20034;-63
2023/07/23 00:34:47;;;;;;;9.57;5.82;;;14.20;99.90;;;;;;5129081;27;20520;-64
2023/07/23 00:37:13;;;;;;;12.18;6.18;;;14.20;99.90;;;;;;5128607;27;20065;-63
2023/07/23 00:39:39;;;;;;;7.65;5.68;;;14.20;99.90;;;;;;5125654;27;20046;-62
2023/07/23 00:42:05;;;;;;;9.13;6.45;;;14.20;99.90;;;;;;5143191;27;20035;-61
2023/07/23 00:44:30;;;;;;;10.15;5.90;;;14.20;99.90;;;;;;5140204;27;20042;-62
2023/07/23 00:46:58;;;;;;;9.93;6.40;;;14.10;99.90;;;;;;5127800;27;20553;-63
2023/07/23 00:49:24;;;;;;;9.20;6.13;;;14.20;99.90;;;;;;5144584;27;20035;-62
2023/07/23 00:51:51;;;;;;;10.48;5.82;;;14.20;99.90;;;;;;5125113;27;20096;-63
2023/07/23 00:54:17;;;;;;;12.00;5.95;;;14.20;99.90;;;;;;5122160;27;20047;-62
2023/07/23 00:56:44;;;;;;;8.57;6.53;;;14.10;99.90;;;;;;5123457;27;20043;-63
2023/07/23 00:59:10;;;;;;;11.55;6.38;;;14.10;99.90;;;;;;5127432;27;20391;-63
2023/07/23 01:01:36;;;;;;;10.13;6.47;;;14.10;99.90;;;;;;5119459;27;20035;-63
2023/07/23 01:04:02;;;;;;;10.23;6.50;;;14.10;99.90;;;;;;5121261;27;20621;-63
2023/07/23 01:06:31;;;;;;;10.68;6.28;;;14.10;99.90;;;;;;5127959;27;20042;-63
2023/07/23 01:08:58;;;;;;;11.32;7.38;;;14.10;99.90;;;;;;5125722;27;20504;-64
2023/07/23 01:11:25;;;;;;;10.93;6.53;;;14.10;99.90;;;;;;5127670;27;20070;-64
2023/07/23 01:13:51;;;;;;;10.45;6.85;;;14.10;99.90;;;;;;5117064;27;20057;-64
2023/07/23 01:16:18;;;;;;;13.50;6.70;;;14.10;99.90;;;;;;5127668;27;20079;-63
2023/07/23 01:18:44;;;;;;;8.52;6.65;;;14.00;99.90;;;;;;5119473;27;20049;-63
2023/07/23 01:21:11;;;;;;;10.82;6.72;;;14.10;99.90;;;;;;5145736;27;20042;-63
2023/07/23 01:23:37;;;;;;;8.48;5.93;;;14.00;99.90;;;;;;5124862;27;20046;-64
2023/07/23 01:26:03;;;;;;;9.23;6.60;;;14.10;99.90;;;;;;5121824;27;20026;-63
2023/07/23 01:28:30;;;;;;;9.55;6.53;;;14.00;99.90;;;;;;5106581;27;20059;-62
2023/07/23 01:30:56;;;;;;;9.38;6.18;;;14.10;99.90;;;;;;5123260;27;20541;-63
2023/07/23 01:33:22;;;;;;;9.40;6.30;;;14.10;99.90;;;;;;5122810;27;20039;-63
2023/07/23 01:35:52;;;;;;;7.32;5.95;;;14.10;99.90;;;;;;5119837;27;20047;-63
2023/07/23 01:38:17;;;;;;;9.45;6.40;;;14.10;99.90;;;;;;5102271;27;20053;-62
2023/07/23 01:40:44;;;;;;;7.82;5.68;;;14.10;99.90;;;;;;5119727;27;20043;-63
2023/07/23 01:43:09;;;;;;;9.07;6.25;;;14.10;99.90;;;;;;5137822;27;20038;-63
2023/07/23 01:45:35;;;;;;;8.55;6.07;;;14.20;99.90;;;;;;5138494;27;20033;-63
2023/07/23 01:48:01;;;;;;;9.48;6.22;;;14.10;99.90;;;;;;5124036;27;20744;-63
2023/07/23 01:50:26;;;;;;;9.40;6.25;;;14.20;99.90;;;;;;5126184;27;20523;-64
2023/07/23 01:52:52;;;;;;;10.05;6.68;;;14.20;99.90;;;;;;5118559;27;20082;-63
2023/07/23 01:55:18;;;;;;;8.82;5.78;;;14.20;99.90;;;;;;5122506;27;20073;-63
2023/07/23 01:57:44;;;;;;;10.27;6.07;;;14.20;99.90;;;;;;5123431;27;20074;-64
2023/07/23 02:00:10;;;;;;;9.95;6.32;;;14.20;99.90;;;;;;5142968;27;20126;-63
2023/07/23 02:02:36;;;;;;;9.20;6.25;;;14.20;99.90;;;;;;5121758;27;20546;-62
2023/07/23 02:05:03;;;;;;;7.72;5.90;;;14.20;99.90;;;;;;5122126;27;20126;-63
2023/07/23 02:07:28;;;;;;;8.88;6.63;;;14.20;99.90;;;;;;5121032;27;20062;-63
2023/07/23 02:09:54;;;;;;;8.85;6.28;;;14.20;99.90;;;;;;5125874;27;20093;-63
2023/07/23 02:12:20;;;;;;;8.68;6.55;;;14.20;99.90;;;;;;5118989;27;20107;-62
2023/07/23 02:14:45;;;;;;;10.95;6.80;;;14.20;99.90;;;;;;5121641;27;20055;-63
2023/07/23 02:17:11;;;;;;;11.75;6.90;;;14.20;99.90;;;;;;5127966;27;20060;-63
2023/07/23 02:19:37;;;;;;;9.63;7.03;;;14.20;99.90;;;;;;5121164;27;20059;-63
2023/07/23 02:22:05;;;;;;;9.25;6.55;;;14.20;99.90;;;;;;5118337;27;20480;-64
2023/07/23 02:24:31;;;;;;;11.10;6.65;;;14.20;99.90;;;;;;5121131;27;20051;-62
2023/07/23 02:26:56;;;;;;;9.80;6.18;;;14.20;99.90;;;;;;5143001;27;20046;-63
2023/07/23 02:29:22;;;;;;;10.18;6.57;;;14.20;99.90;;;;;;5134005;27;20725;-63
2023/07/23 02:31:48;;;;;;;9.63;6.65;;;14.20;99.90;;;;;;5123038;27;20064;-61
2023/07/23 02:34:14;;;;;;;11.40;7.45;;;14.20;99.90;;;;;;5123846;27;20042;-64
2023/07/23 02:36:40;;;;;;;10.40;7.05;;;14.30;99.90;;;;;;5136961;27;20313;-62
2023/07/23 02:39:05;;;;;;;11.05;7.30;;;14.30;99.90;;;;;;5122717;27;20031;-63
2023/07/23 02:41:31;;;;;;;11.48;7.50;;;14.20;99.90;;;;;;5119238;27;20067;-62
2023/07/23 02:43:57;;;;;;;11.88;7.35;;;14.20;99.90;;;;;;5129267;27;20047;-62
2023/07/23 02:46:23;;;;;;;12.98;7.50;;;14.20;99.90;;;;;;5121928;27;20043;-64
2023/07/23 02:48:49;;;;;;;10.75;7.53;;;14.20;99.90;;;;;;5129431;27;20039;-64
2023/07/23 02:51:14;;;;;;;12.35;6.97;;;14.20;99.90;;;;;;5123645;27;20553;-64
2023/07/23 02:53:40;;;;;;;9.05;7.70;;;14.20;99.90;;;;;;5145967;27;20481;-63
2023/07/23 02:56:05;;;;;;;10.80;7.40;;;14.20;99.90;;;;;;5145303;27;20031;-64
2023/07/23 02:58:31;;;;;;;9.75;7.60;;;14.20;99.90;;;;;;5125657;27;20035;-63
2023/07/23 03:00:57;;;;;;;9.57;7.38;;;14.20;99.90;;;;;;5128513;27;20549;-62
2023/07/23 03:03:23;;;;;;;11.38;7.38;;;14.20;99.90;;;;;;5114152;27;20048;-63
2023/07/23 03:05:49;;;;;;;11.07;7.68;;;14.20;99.90;;;;;;5119471;27;20035;-63
2023/07/23 03:08:15;;;;;;;14.23;8.93;;;14.20;99.90;;;;;;5115624;27;20054;-63
2023/07/23 03:10:41;;;;;;;10.20;7.35;;;14.20;99.90;;;;;;5122115;27;20074;-63
2023/07/23 03:13:07;;;;;;;10.48;6.95;;;14.20;99.90;;;;;;5125111;27;20039;-64
2023/07/23 03:15:34;;;;;;;10.73;7.50;;;14.20;99.90;;;;;;5121822;27;20058;-63
2023/07/23 03:18:00;;;;;;;13.73;7.68;;;14.20;99.90;;;;;;5120639;27;20251;-63
2023/07/23 03:20:26;;;;;;;9.80;7.40;;;14.20;99.90;;;;;;5119270;27;20048;-63
2023/07/23 03:22:52;;;;;;;10.43;7.38;;;14.20;99.90;;;;;;5123091;27;20485;-62
2023/07/23 03:25:18;;;;;;;9.43;7.20;;;14.20;99.90;;;;;;5124464;27;20050;-63
2023/07/23 03:27:44;;;;;;;10.32;7.57;;;14.20;99.90;;;;;;5121028;27;20095;-63
2023/07/23 03:30:10;;;;;;;12.45;7.82;;;14.20;99.90;;;;;;5120509;27;20032;-62
2023/07/23 03:32:36;;;;;;;12.95;7.05;;;14.10;99.90;;;;;;5119222;27;20545;-63
2023/07/23 03:35:02;;;;;;;12.32;7.30;;;14.20;99.90;;;;;;5122893;27;20046;-63
2023/07/23 03:37:28;;;;;;;8.82;6.80;;;14.20;99.90;;;;;;5118799;27;20539;-62
2023/07/23 03:39:53;;;;;;;13.20;7.82;;;14.20;99.90;;;;;;5116946;27;20050;-63
2023/07/23 03:42:19;;;;;;;10.73;7.63;;;14.20;99.90;;;;;;5120549;27;20051;-63
2023/07/23 03:44:45;;;;;;;10.77;7.45;;;14.20;99.90;;;;;;5121786;27;20390;-63
2023/07/23 03:47:16;;;;;;;10.15;7.80;;;14.20;99.90;;;;;;5125275;27;20036;-64
2023/07/23 03:49:42;;;;;;;10.93;7.88;;;14.20;99.90;;;;;;5123575;27;20428;-62
2023/07/23 03:52:08;;;;;;;9.85;8.00;;;14.30;99.90;;;;;;5118630;27;20043;-64
2023/07/23 03:54:34;;;;;;;11.13;7.65;;;14.20;99.90;;;;;;5118596;27;20461;-63
2023/07/23 03:57:00;;;;;;;10.02;7.28;;;14.30;99.90;;;;;;5117444;27;20071;-63
2023/07/23 03:59:33;;;;;;;12.35;8.05;;;14.30;99.90;;;;;;5122386;27;20062;-63
2023/07/23 04:01:59;;;;;;;10.70;7.93;;;14.30;99.90;;;;;;5117611;27;20631;-64
2023/07/23 04:04:25;;;;;;;12.90;8.27;;;14.30;99.90;;;;;;5128113;27;20055;-63
2023/07/23 04:06:51;;;;;;;13.57;8.02;;;14.30;99.90;;;;;;5123999;27;20039;-64
2023/07/23 04:09:17;;;;;;;17.88;9.38;;;14.20;99.90;;;;;;5121771;27;20182;-63
2023/07/23 04:11:42;;;;;;;11.95;8.55;;;14.20;99.90;;;;;;5145144;27;20428;-62
2023/07/23 04:14:08;;;;;;;12.93;8.73;;;14.20;99.90;;;;;;5118350;27;20046;-63
2023/07/23 04:16:34;;;;;;;11.32;8.60;;;14.20;99.90;;;;;;5138756;27;20034;-63
2023/07/23 04:18:59;;;;;;;11.82;8.25;;;14.20;99.90;;;;;;5145435;27;20041;-64
2023/07/23 04:21:25;;;;;;;12.13;8.43;;;14.20;99.90;;;;;;5123275;27;20054;-63
2023/07/23 04:23:52;;;;;;;10.80;8.50;;;14.20;99.90;;;;;;5119486;27;20065;-62
2023/07/23 04:26:21;;;;;;;9.38;8.07;;;14.20;99.90;;;;;;5122327;27;20045;-63
2023/07/23 04:28:47;;;;;;;13.98;9.18;;;14.20;99.90;;;;;;5137402;27;20043;-63
2023/07/23 04:31:13;;;;;;;12.02;8.90;;;14.20;99.90;;;;;;5143511;27;20376;-62
2023/07/23 04:33:38;;;;;;;14.90;8.82;;;14.20;99.90;;;;;;5124903;27;20043;-63
2023/07/23 04:36:07;;;;;;;13.00;8.93;;;14.20;99.90;;;;;;5125911;27;20057;-64
2023/07/23 04:38:33;;;;;;;11.10;8.95;;;14.20;99.90;;;;;;5125797;27;20050;-63
2023/07/23 04:40:58;;;;;;;11.70;8.85;;;14.20;99.90;;;;;;5143525;27;20031;-63
2023/07/23 04:43:24;;;;;;;13.18;9.75;;;14.20;99.90;;;;;;5126386;27;20050;-64
2023/07/23 04:45:49;;;;;;;11.90;9.68;;;14.20;99.90;;;;;;5121651;27;20046;-63
2023/07/23 04:48:16;;;;;;;15.60;9.50;;;14.20;99.90;;;;;;5123019;27;20035;-63
2023/07/23 04:50:42;;;;;;;13.93;9.60;;;14.20;99.90;;;;;;5125691;27;20055;-62
2023/07/23 04:53:08;;;;;;;12.02;9.73;;;14.20;99.90;;;;;;5142547;27;20050;-64
2023/07/23 04:55:33;;;;;;;15.13;10.02;;;14.20;99.90;;;;;;5144985;27;20392;-63
2023/07/23 04:57:59;;;;;;;13.93;9.25;;;14.20;99.90;;;;;;5120308;27;20457;-63
2023/07/23 05:00:26;;;;;;;12.23;9.27;;;14.20;99.90;;;;;;5142606;27;20053;-63
2023/07/23 05:02:51;;;;;;;12.60;9.32;;;14.20;99.90;;;;;;5117847;27;20069;-63
2023/07/23 05:05:17;;;;;;;11.23;8.80;;;14.20;99.90;;;;;;5124498;27;20051;-63
2023/07/23 05:07:43;;;;;;;15.82;10.30;;;14.30;99.90;;;;;;5116001;27;20065;-63
2023/07/23 05:10:09;;;;;;;14.73;10.07;;;14.30;99.90;;;;;;5120386;27;20046;-63
2023/07/23 05:12:34;;;;;;;13.30;9.35;;;14.30;99.90;;;;;;5115116;27;20035;-63
2023/07/23 05:15:12;;;;;;;12.63;9.23;;;14.30;99.90;;;;;;5116743;27;20133;-63
2023/07/23 05:17:38;;;;;;;12.65;10.18;;;14.30;99.90;;;;;;5122442;27;20527;-63
2023/07/23 05:20:06;;;;;;;11.80;9.45;;;14.30;99.90;;;;;;5145307;27;20076;-64
2023/07/23 05:22:33;;;;;;;11.95;9.27;;;14.30;99.90;;;;;;5105952;27;20035;-63
2023/07/23 05:24:58;;;;;;;12.65;9.93;;;14.30;99.90;;;;;;5119697;27;20034;-62
2023/07/23 05:27:26;;;;;;;13.27;9.70;;;14.40;99.90;;;;;;5145128;27;20034;-63
2023/07/23 05:29:51;;;;;;;14.90;9.73;;;14.40;99.90;;;;;;5117157;27;20140;-63
2023/07/23 05:32:17;;;;;;;11.00;8.70;;;14.40;99.90;;;;;;5121734;27;20513;-63
2023/07/23 05:34:43;;;;;;;11.98;8.73;;;14.40;99.90;;;;;;5115719;27;20038;-63
2023/07/23 05:37:08;;;;;;;11.98;9.52;;;14.50;99.90;;;;;;5122327;27;20046;-62
2023/07/23 05:39:34;;;;;;;13.18;9.68;;;14.50;99.90;;;;;;5125215;27;20035;-63
2023/07/23 05:42:00;;;;;;;12.13;9.57;;;14.50;99.90;;;;;;5140395;27;20054;-62
2023/07/23 05:44:25;;;;;;;13.18;9.77;;;14.60;99.90;;;;;;5122942;27;20149;-62
2023/07/23 05:46:51;;;;;;;13.60;9.70;;;14.60;99.90;;;;;;5115575;27;20177;-62
2023/07/23 05:49:17;;;;;;;12.32;9.50;;;14.60;99.90;;;;;;5137800;27;20035;-63
2023/07/23 05:51:42;;;;;;;13.52;10.00;;;14.60;99.90;;;;;;5125970;27;20043;-62
2023/07/23 05:54:08;;;;;;;13.45;9.48;;;14.70;99.90;;;;;;5136560;27;20057;-63
2023/07/23 05:56:34;;;;;;;14.20;9.85;;;14.70;99.90;;;;;;5138141;27;20491;-63
2023/07/23 05:58:59;;;;;;;13.70;9.85;;;14.70;99.90;;;;;;5121872;27;20392;-61
2023/07/23 06:01:25;;;;;;;13.27;9.85;;;14.70;99.90;;;;;;5103007;27;20050;-63
2023/07/23 06:03:51;;;;;;;14.38;10.50;;;14.70;99.90;;;;;;5125238;27;20061;-64
2023/07/23 06:06:16;;;;;;;15.05;10.13;;;14.80;99.90;;;;;;5121579;27;20095;-62
2023/07/23 06:08:42;;;;;;;13.52;9.93;;;14.80;99.90;;;;;;5141790;27;20050;-63
2023/07/23 06:11:08;;;;;;;11.45;9.18;;;14.80;99.90;;;;;;5141383;27;21076;-63
2023/07/23 06:13:33;;;;;;;13.15;9.27;;;14.90;99.90;;;;;;5121601;27;20050;-62
2023/07/23 06:15:59;;;;;;;13.48;9.90;;;14.90;99.90;;;;;;5113802;27;20043;-63
2023/07/23 06:18:24;;;;;;;11.73;9.98;;;14.90;99.90;;;;;;5114366;27;20104;-63
2023/07/23 06:20:50;;;;;;;12.13;9.00;;;15.00;99.90;;;;;;5123778;27;20066;-62
2023/07/23 06:23:16;;;;;;;13.70;9.82;;;15.00;99.90;;;;;;5120540;27;20050;-63
2023/07/23 06:25:41;;;;;;;13.85;9.73;;;15.00;99.90;;;;;;5123155;27;20035;-64
2023/07/23 06:28:07;;;;;;;12.30;9.23;;;15.10;99.90;;;;;;5122765;27;20046;-64
2023/07/23 06:30:34;;;;;;;12.15;9.18;;;15.10;99.90;;;;;;5122451;27;20035;-63
2023/07/23 06:33:00;;;;;;;12.15;8.57;;;15.10;99.90;;;;;;5141679;27;20034;-62
2023/07/23 06:35:25;;;;;;;12.90;8.63;;;15.10;99.90;;;;;;5126357;27;20535;-63
2023/07/23 06:37:51;;;;;;;11.50;8.25;;;15.10;99.90;;;;;;5122968;27;20461;-62
2023/07/23 06:40:16;;;;;;;12.57;9.25;;;15.10;99.90;;;;;;5122851;27;20047;-63
2023/07/23 06:42:42;;;;;;;15.02;8.93;;;15.10;99.90;;;;;;5122849;27;21540;-62
2023/07/23 06:45:09;;;;;;;12.98;8.88;;;15.10;99.90;;;;;;5122138;27;20446;-62
2023/07/23 06:47:36;;;;;;;15.02;9.30;;;15.20;99.90;;;;;;5124768;27;20039;-63
2023/07/23 06:50:02;;;;;;;12.43;8.13;;;15.20;99.90;;;;;;5143124;27;20118;-62
2023/07/23 06:52:28;;;;;;;13.68;8.57;;;15.20;99.90;;;;;;5137119;27;20078;-64
2023/07/23 06:54:54;;;;;;;11.13;8.27;;;15.20;99.90;;;;;;5112285;27;20046;-64
2023/07/23 06:57:19;;;;;;;14.73;8.98;;;15.20;99.90;;;;;;5121748;27;20466;-63
2023/07/23 06:59:46;;;;;;;15.38;8.85;;;15.20;99.90;;;;;;5121349;27;20042;-63
2023/07/23 07:02:12;;;;;;;14.80;8.38;;;15.20;99.90;;;;;;5124696;27;20035;-63
2023/07/23 07:04:37;;;;;;;13.32;9.10;;;15.20;99.90;;;;;;5124536;27;20508;-63
2023/07/23 07:07:04;;;;;;;15.07;8.80;;;15.10;99.90;;;;;;5127391;27;20115;-63
2023/07/23 07:09:30;;;;;;;14.55;9.10;;;15.10;99.90;;;;;;5114803;27;20051;-63
2023/07/23 07:11:55;;;;;;;11.80;8.50;;;15.20;99.90;;;;;;5123566;27;20099;-63
2023/07/23 07:14:21;;;;;;;12.68;7.95;;;15.10;99.90;;;;;;5110822;27;20031;-64
2023/07/23 07:16:47;;;;;;;13.55;8.95;;;15.20;99.90;;;;;;5127249;27;20049;-63
2023/07/23 07:19:13;;;;;;;16.80;8.90;;;15.20;99.90;;;;;;5112260;28;20439;-63
2023/07/23 07:21:39;;;;;;;16.55;8.98;;;15.20;99.90;;;;;;5114399;27;20402;-64
2023/07/23 07:24:06;;;;;;;13.15;8.50;;;15.20;99.90;;;;;;5112984;27;20055;-63
2023/07/23 07:26:32;;;;;;;10.82;8.30;;;15.20;99.90;;;;;;5101021;27;20038;-63
2023/07/23 07:28:58;;;;;;;13.70;8.30;;;15.30;99.90;;;;;;5119927;27;20107;-63
2023/07/23 07:31:24;;;;;;;14.00;8.60;;;15.30;99.90;;;;;;5121530;27;20039;-63
2023/07/23 07:33:50;;;;;;;12.57;7.80;;;15.30;99.90;;;;;;5107978;27;20111;-62
2023/07/23 07:36:17;;;;;;;12.55;8.13;;;15.30;99.90;;;;;;5124153;27;20094;-63
2023/07/23 07:38:43;;;;;;;11.02;7.90;;;15.20;99.90;;;;;;5119032;27;20099;-63
2023/07/23 07:41:09;;;;;;;12.48;8.73;;;15.20;99.90;;;;;;5115892;27;20043;-62
2023/07/23 07:43:35;;;;;;;14.45;8.27;;;15.20;99.90;;;;;;5114017;27;20069;-64
2023/07/23 07:46:03;;;;;;;12.60;8.55;;;15.20;99.90;;;;;;5113247;27;20421;-63
2023/07/23 07:48:29;;;;;;;11.50;7.55;;;15.10;99.90;;;;;;5119409;27;20127;-64
2023/07/23 07:51:00;;;;;;;15.57;8.52;;;15.10;99.90;;;;;;5136600;27;20050;-64
2023/07/23 07:53:25;;;;;;;12.18;8.73;;;15.10;99.90;;;;;;5132452;27;20043;-62
2023/07/23 07:55:51;;;;;;;14.38;8.30;;;15.20;99.90;;;;;;5132303;27;20084;-62
2023/07/23 07:58:24;;;;;;;14.63;8.23;;;15.20;99.90;;;;;;5109573;27;20401;-61
2023/07/23 08:00:56;;;;;;;10.93;7.53;;;15.20;99.90;;;;;;5109075;27;20575;-63
2023/07/23 08:03:24;;;;;;;11.18;7.53;;;15.20;99.90;;;;;;5124169;27;20106;-62
2023/07/23 08:05:50;;;;;;;14.95;8.20;;;15.20;99.90;;;;;;5125598;27;20082;-63
2023/07/23 08:08:17;;;;;;;10.07;7.38;;;15.20;99.90;;;;;;5125284;27;20043;-63
2023/07/23 08:10:45;;;;;;;12.45;7.78;;;15.30;99.90;;;;;;5128623;27;20477;-64
2023/07/23 08:13:13;;;;;;;12.18;8.10;;;15.30;99.90;;;;;;5144758;27;20078;-63
2023/07/23 08:15:39;;;;;;;11.25;7.68;;;15.30;99.90;;;;;;5127828;27;20078;-63
2023/07/23 08:18:05;;;;;;;11.10;6.80;;;15.30;99.90;;;;;;5131247;27;20031;-63
2023/07/23 08:20:34;;;;;;;10.15;7.43;;;15.40;99.90;;;;;;5124942;27;20038;-61
2023/07/23 08:23:01;;;;;;;10.93;8.00;;;15.40;99.90;;;;;;5127257;27;20046;-63
2023/07/23 08:25:29;;;;;;;11.60;7.30;;;15.40;99.90;;;;;;5120088;27;20134;-61
2023/07/23 08:28:01;;;;;;;12.18;7.03;;;15.30;99.90;;;;;;5121302;27;20445;-61
2023/07/23 08:30:27;;;;;;;12.00;7.00;;;15.40;99.90;;;;;;5128509;27;20051;-62
2023/07/23 08:32:58;;;;;;;11.75;6.72;;;15.30;99.90;;;;;;5120705;27;20042;-61
2023/07/23 08:35:25;;;;;;;11.18;7.25;;;15.30;99.90;;;;;;5117442;27;20042;-62
2023/07/23 08:37:51;;;;;;;9.43;6.20;;;15.30;99.90;;;;;;5119693;27;20121;-61
2023/07/23 08:40:18;;;;;;;11.35;6.97;;;15.30;99.90;;;;;;5108048;27;20035;-60
2023/07/23 08:43:06;;;;;;;9.05;6.88;;;15.30;99.90;;;;;;5115506;27;20035;-62
2023/07/23 08:45:53;;;;;;;8.38;6.75;;;15.30;99.90;;;;;;5119176;27;20417;-61
2023/07/23 08:48:20;;;;;;;9.20;6.88;;;15.40;99.90;;;;;;5128269;27;20091;-61
2023/07/23 08:50:48;;;;;;;9.00;6.32;;;15.30;99.90;;;;;;5121074;27;20050;-61
2023/07/23 08:53:15;;;;;;;10.75;6.45;;;15.40;99.90;;;;;;5145157;27;20031;-61
2023/07/23 08:55:44;;;;;;;10.52;6.82;;;15.40;99.90;;;;;;5121831;27;20096;-61
2023/07/23 08:58:14;;;;;;;8.07;6.78;;;15.40;99.90;;;;;;5118341;27;20034;-62
2023/07/23 09:00:44;;;;;;;12.00;6.50;;;15.40;99.90;;;;;;5145390;27;20049;-62
2023/07/23 09:03:17;;;;;;;7.22;6.03;;;15.40;99.90;;;;;;5121403;27;20490;-61
2023/07/23 09:05:43;;;;;;;6.70;5.70;;;15.40;99.90;;;;;;5114075;27;20406;-61
2023/07/23 09:08:09;;;;;;;7.70;6.10;;;15.50;99.90;;;;;;5120826;27;20042;-62
2023/07/23 09:10:35;;;;;;;8.57;5.70;;;15.50;99.90;;;;;;5120569;27;20126;-62
2023/07/23 09:13:11;;;;;;;8.65;6.20;;;15.40;99.90;;;;;;5119624;27;20126;-61
2023/07/23 09:15:37;;;;;;;9.27;5.85;;;15.50;99.90;;;;;;5119977;27;20446;-62
2023/07/23 09:18:03;;;;;;;10.55;6.10;;;15.50;99.90;;;;;;5120720;27;20138;-62
2023/07/23 09:20:28;;;;;;;8.63;5.93;;;15.50;99.90;;;;;;5121919;27;20412;-61
2023/07/23 09:22:54;;;;;;;6.75;5.32;;;15.50;99.90;;;;;;5121740;27;20036;-62
2023/07/23 09:25:20;;;;;;;6.85;5.55;;;15.50;99.90;;;;;;5121255;27;20071;-61
2023/07/23 09:27:46;;;;;;;7.70;5.93;;;15.50;99.90;;;;;;5118718;27;20062;-62
2023/07/23 09:30:19;;;;;;;8.25;5.13;;;15.50;99.90;;;;;;5124829;27;20053;-62
2023/07/23 09:32:54;;;;;;;5.75;5.15;;;15.60;99.90;;;;;;5112565;27;20054;-62
2023/07/23 09:35:22;;;;;;;9.27;5.07;;;15.60;99.90;;;;;;5117488;27;20043;-62
2023/07/23 09:37:56;;;;;;;7.85;4.70;;;15.60;99.90;;;;;;5124831;27;20504;-62
2023/07/23 09:40:21;;;;;;;7.10;5.05;;;15.70;99.90;;;;;;5118397;27;20054;-62
2023/07/23 09:42:48;;;;;;;7.00;5.13;;;15.70;99.90;;;;;;5119040;27;20051;-62
2023/07/23 09:45:13;;;;;;;6.55;4.88;;;15.70;99.90;;;;;;5120670;27;20047;-62
2023/07/23 09:47:39;;;;;;;6.53;4.53;;;15.80;99.90;;;;;;5116639;27;20512;-61
2023/07/23 09:50:09;;;;;;;6.78;4.45;;;15.80;99.90;;;;;;5116226;27;20426;-62
2023/07/23 09:52:35;;;;;;;7.22;4.80;;;15.80;99.90;;;;;;5118074;27;20046;-62
2023/07/23 09:55:03;;;;;;;6.40;5.38;;;15.80;99.90;;;;;;5116615;27;20039;-62
2023/07/23 09:57:31;;;;;;;5.50;4.38;;;15.80;99.90;;;;;;5117218;27;20162;-61
2023/07/23 09:59:59;;;;;;;5.78;4.47;;;15.80;99.90;;;;;;5120869;27;20084;-62
2023/07/23 10:02:27;;;;;;;5.03;4.25;;;15.80;99.90;;;;;;5119176;27;20066;-62
2023/07/23 10:04:54;;;;;;;5.50;4.43;;;15.80;99.90;;;;;;5134046;27;20126;-62
2023/07/23 10:07:21;;;;;;;6.03;4.43;;;15.80;99.90;;;;;;5140996;27;20062;-61
2023/07/23 10:09:48;;;;;;;5.97;4.22;;;15.80;99.90;;;;;;5113993;27;20054;-61
2023/07/23 10:12:13;;;;;;;6.00;4.70;;;15.80;99.90;;;;;;5133895;27;20513;-62
2023/07/23 10:14:39;;;;;;;5.38;4.80;;;15.80;99.90;;;;;;5121877;27;20039;-61
2023/07/23 10:17:06;;;;;;;6.65;4.95;;;15.80;99.90;;;;;;5121558;27;20038;-62
2023/07/23 10:19:32;;;;;;;6.28;4.82;;;15.80;99.90;;;;;;5104092;27;20056;-61
2023/07/23 10:21:58;;;;;;;6.45;4.63;;;15.80;99.90;;;;;;5122740;27;20035;-62
2023/07/23 10:24:36;;;;;;;8.13;5.13;;;15.90;99.90;;;;;;5122133;27;20046;-62
2023/07/23 10:27:14;;;;;;;8.00;5.22;;;15.90;99.90;;;;;;5129759;27;20098;-62
2023/07/23 10:29:41;;;;;;;6.07;4.68;;;15.90;99.90;;;;;;5118948;27;20077;-62
2023/07/23 10:32:36;;;;;;;7.15;5.55;;;15.90;99.90;;;;;;5118074;27;20078;-61
2023/07/23 10:35:02;;;;;;;5.47;4.53;;;15.90;99.90;;;;;;5041144;28;20071;-62
2023/07/23 10:37:28;;;;;;;7.53;5.28;;;15.90;99.90;;;;;;5036183;28;20045;-62
2023/07/23 10:39:59;;;;;;;6.07;4.97;;;15.90;99.90;;;;;;5052399;28;20048;-62
2023/07/23 10:42:36;;;;;;;5.80;5.20;;;15.90;99.90;;;;;;5063809;28;20118;-62
2023/07/23 10:45:19;;;;;;;6.72;4.90;;;15.90;99.90;;;;;;5052089;28;20044;-61
2023/07/23 10:47:56;;;;;;;5.75;5.03;;;16.00;99.90;;;;;;5043267;28;20064;-62
2023/07/23 10:50:22;;;;;;;6.50;5.30;;;16.00;99.90;;;;;;5033316;28;20041;-63
2023/07/23 10:52:58;;;;;;;5.40;4.90;;;16.00;99.90;;;;;;5030925;28;20052;-62
2023/07/23 10:55:45;;;;;;;6.00;5.13;;;16.00;99.90;;;;;;5036689;28;20048;-62
2023/07/23 10:58:13;;;;;;;8.23;5.45;;;16.00;99.90;;;;;;5048916;28;20036;-61
2023/07/23 11:00:59;;;;;;;6.68;5.45;;;16.00;99.90;;;;;;5044342;28;20661;-61
2023/07/23 11:03:26;;;;;;;8.25;5.63;;;16.00;99.90;;;;;;5050622;28;20064;-62
2023/07/23 11:05:52;;;;;;;6.57;5.80;;;16.00;99.90;;;;;;5034709;28;20132;-62
2023/07/23 11:08:24;;;;;;;7.43;5.38;;;16.00;99.90;;;;;;5043548;28;20059;-61
2023/07/23 11:10:59;;;;;;;6.80;5.40;;;16.00;99.90;;;;;;5086914;27;20528;-61
2023/07/23 11:13:27;;;;;;;6.75;5.47;;;16.10;99.90;;;;;;5141542;27;20095;-62
2023/07/23 11:15:52;;;;;;;6.20;5.38;;;16.10;99.90;;;;;;5122612;27;20515;-62
2023/07/23 11:18:19;;;;;;;8.07;5.22;;;16.10;99.90;;;;;;5124811;27;20039;-61
2023/07/23 11:20:46;;;;;;;6.25;5.00;;;16.20;99.90;;;;;;5130594;27;20046;-63
2023/07/23 11:23:13;;;;;;;6.72;5.20;;;16.20;99.90;;;;;;5144417;27;20049;-61
2023/07/23 11:25:39;;;;;;;6.43;5.32;;;16.20;99.90;;;;;;5152405;27;20035;-60
2023/07/23 11:28:06;;;;;;;8.68;5.30;;;16.10;99.90;;;;;;5140002;27;20102;-61
2023/07/23 11:30:32;;;;;;;6.63;5.25;;;16.20;99.90;;;;;;5128638;27;20046;-62
2023/07/23 11:32:59;;;;;;;6.30;5.03;;;16.20;99.90;;;;;;5137651;27;20027;-61
2023/07/23 11:35:25;;;;;;;6.65;4.95;;;16.20;99.90;;;;;;5128705;27;20039;-61
2023/07/23 11:37:51;;;;;;;6.95;5.20;;;16.20;99.90;;;;;;5146169;27;20102;-61
2023/07/23 11:40:24;;;;;;;6.63;4.95;;;16.20;99.90;;;;;;5138726;27;20493;-61
2023/07/23 11:42:52;;;;;;;5.55;4.90;;;16.30;99.90;;;;;;5121853;27;20037;-61
2023/07/23 11:45:18;;;;;;;5.82;4.88;;;16.30;99.90;;;;;;5142971;27;20031;-60
2023/07/23 11:47:54;;;;;;;6.70;5.05;;;16.30;99.90;;;;;;5143384;27;20038;-61
2023/07/23 11:50:21;;;;;;;6.75;5.30;;;16.30;99.90;;;;;;5123857;27;20038;-61
2023/07/23 11:52:49;;;;;;;6.00;4.68;;;16.30;99.90;;;;;;5139307;27;20394;-60
2023/07/23 11:55:22;;;;;;;6.82;4.43;;;16.30;99.90;;;;;;5137883;27;20098;-61
2023/07/23 11:57:58;;;;;;;5.18;4.38;;;16.30;99.90;;;;;;5115636;27;20031;-61
2023/07/23 12:00:25;;;;;;;5.90;4.78;;;16.40;99.90;;;;;;5122730;27;20192;-62
2023/07/23 12:02:51;;;;;;;5.97;4.38;;;16.40;99.90;;;;;;5136972;27;20129;-60
2023/07/23 12:05:17;;;;;;;4.90;4.38;;;16.40;99.90;;;;;;5128659;27;20171;-61
2023/07/23 12:07:43;;;;;;;5.03;4.22;;;16.50;99.90;;;;;;5117697;27;20034;-61
2023/07/23 12:10:09;;;;;;;4.82;3.80;;;16.50;99.90;;;;;;5122327;27;20042;-60
2023/07/23 12:12:35;;;;;;;3.92;3.47;;;16.50;99.90;;;;;;5125443;27;20052;-60
2023/07/23 12:15:04;;;;;;;4.50;3.72;;;16.60;99.90;;;;;;5140744;27;20039;-62
2023/07/23 12:17:30;;;;;;;3.58;3.28;;;16.70;99.90;;;;;;5144515;27;20042;-62
2023/07/23 12:19:55;;;;;;;6.05;3.85;;;16.70;99.90;;;;;;5128383;27;20031;-60
2023/07/23 12:22:24;;;;;;;4.00;3.60;;;16.80;99.90;;;;;;5147916;27;20030;-61
2023/07/23 12:24:49;;;;;;;5.38;3.95;;;16.80;99.90;;;;;;5126549;27;20042;-60
2023/07/23 12:27:15;;;;;;;5.30;4.00;;;16.90;99.90;;;;;;5144627;27;20047;-60
2023/07/23 12:29:42;;;;;;;5.28;3.40;;;16.90;99.90;;;;;;5124038;27;20487;-61
2023/07/23 12:32:13;;;;;;;4.28;3.85;;;17.00;99.90;;;;;;5141515;27;20039;-62
2023/07/23 12:34:40;;;;;;;5.07;4.45;;;17.10;99.90;;;;;;5144240;27;20062;-61
2023/07/23 12:37:07;;;;;;;5.20;4.65;;;17.30;99.90;;;;;;5123817;27;20047;-61
2023/07/23 12:39:32;;;;;;;5.32;4.63;;;17.50;99.90;;;;;;5137063;27;21532;-61